Time;durP1;ratioP1;P1;durP2;ratioP2;P2;SDS_P1;SDS_P2;PMS_P1;PMS_P2;Temp;Humidity;BMP_temperature;BMP_pressure;BME280_temperature;BME280_humidity;BME280_pressure;Samples;Min_cycle;Max_cycle;Signal;HPM_P1;HPM_P2
2022/11/17 03:50:12;;;;;;;11.22;7.42;;;;;;;;;;1810882;78;28173;-60
2022/11/17 03:52:39;;;;;;;11.78;7.12;;;;;;;;;;1739161;82;21059;-60
2022/11/17 03:55:05;;;;;;;11.25;6.60;;;;;;;;;;1714477;82;21062;-61
2022/11/17 03:57:34;;;;;;;12.33;7.37;;;;;;;;;;1717778;82;22335;-61
2022/11/17 04:00:01;;;;;;;11.78;7.37;;;;;;;;;;1723136;82;21083;-61
2022/11/17 04:02:29;;;;;;;10.80;6.30;;;;;;;;;;1711561;82;21027;-60
2022/11/17 04:05:04;;;;;;;13.22;7.05;;;;;;;;;;1711479;82;21111;-61
2022/11/17 04:07:31;;;;;;;11.10;6.42;;;;;;;;;;1710344;82;21597;-59
2022/11/17 04:09:57;;;;;;;11.22;7.10;;;;;;;;;;1709661;83;21047;-64
2022/11/17 04:17:54;;;;;;;12.55;7.28;;;;;;;;;;1718205;82;21035;-60
2022/11/17 04:20:20;;;;;;;10.65;6.20;;;;;;;;;;1709536;84;21114;-59
2022/11/17 04:23:05;;;;;;;12.95;6.97;;;;;;;;;;1711054;82;21063;-60
2022/11/17 04:28:35;;;;;;;12.58;6.58;;;;;;;;;;1706929;82;21601;-60
2022/11/17 04:30:31;;;;;;;11.05;6.67;;;;;;;;;;1720378;82;21594;-60
2022/11/17 04:32:57;;;;;;;12.35;6.92;;;;;;;;;;1738655;82;21558;-60
2022/11/17 04:35:23;;;;;;;12.15;6.17;;;;;;;;;;1739107;82;21103;-60
2022/11/17 04:37:49;;;;;;;12.45;7.53;;;;;;;;;;1717265;82;21057;-60
2022/11/17 04:40:15;;;;;;;10.35;6.65;;;;;;;;;;1700261;84;21103;-60
2022/11/17 04:42:41;;;;;;;14.10;6.72;;;;;;;;;;1710060;84;21063;-60
2022/11/17 04:45:09;;;;;;;14.10;6.47;;;;;;;;;;1709522;84;21033;-59
2022/11/17 04:47:35;;;;;;;10.72;7.25;;;;;;;;;;1707941;84;21043;-60
2022/11/17 04:50:01;;;;;;;12.18;7.12;;;;;;;;;;1672948;85;21634;-59
2022/11/17 04:52:27;;;;;;;10.13;6.30;;;;;;;;;;1677873;85;21015;-60
2022/11/17 04:54:54;;;;;;;15.08;7.37;;;;;;;;;;1660704;85;21122;-60
2022/11/17 04:57:21;;;;;;;11.25;6.20;;;;;;;;;;1663925;85;21816;-60
2022/11/17 04:59:48;;;;;;;11.80;6.37;;;;;;;;;;1646977;87;21084;-60
2022/11/17 05:02:14;;;;;;;11.93;6.62;;;;;;;;;;1646995;87;21270;-60
2022/11/17 05:04:55;;;;;;;8.93;6.08;;;;;;;;;;1650691;85;21105;-60
2022/11/17 05:07:22;;;;;;;10.60;5.78;;;;;;;;;;1654614;85;21032;-59
2022/11/17 05:09:48;;;;;;;13.05;6.28;;;;;;;;;;1647192;87;21286;-61
2022/11/17 05:14:58;;;;;;;12.98;6.35;;;;;;;;;;1653965;85;21089;-62
2022/11/17 05:17:26;;;;;;;11.18;6.55;;;;;;;;;;1654398;85;21154;-62
2022/11/17 05:19:52;;;;;;;12.10;6.80;;;;;;;;;;1653821;87;21058;-62
2022/11/17 05:25:06;;;;;;;12.40;6.47;;;;;;;;;;1677332;85;21078;-60
2022/11/17 05:27:33;;;;;;;12.35;6.40;;;;;;;;;;1648709;86;21040;-60
2022/11/17 05:29:59;;;;;;;11.20;6.53;;;;;;;;;;1649608;86;21068;-60
2022/11/17 05:32:26;;;;;;;13.10;7.00;;;;;;;;;;1644762;86;21056;-60
2022/11/17 05:34:52;;;;;;;11.18;6.35;;;;;;;;;;1643720;86;21039;-60
2022/11/17 05:37:18;;;;;;;9.80;5.67;;;;;;;;;;1676802;84;21489;-60
2022/11/17 05:39:44;;;;;;;10.88;6.55;;;;;;;;;;1678632;84;21129;-61
2022/11/17 05:42:11;;;;;;;11.60;6.92;;;;;;;;;;1649471;86;21087;-61
2022/11/17 05:44:38;;;;;;;12.47;6.75;;;;;;;;;;1658640;86;21578;-60
2022/11/17 05:47:06;;;;;;;13.03;7.25;;;;;;;;;;1649682;85;21028;-61
2022/11/17 05:49:32;;;;;;;11.68;6.67;;;;;;;;;;1670683;84;21515;-61
2022/11/17 05:51:58;;;;;;;13.20;6.87;;;;;;;;;;1681156;84;21115;-61
2022/11/17 05:54:25;;;;;;;17.92;8.55;;;;;;;;;;1682741;84;21575;-61
2022/11/17 05:56:54;;;;;;;14.55;7.62;;;;;;;;;;1678052;84;21115;-61
2022/11/17 05:59:24;;;;;;;15.38;9.23;;;;;;;;;;1688805;84;21052;-62
2022/11/17 06:01:52;;;;;;;14.98;7.62;;;;;;;;;;1682156;84;21056;-61
2022/11/17 06:04:19;;;;;;;13.70;7.47;;;;;;;;;;1686735;84;21058;-63
2022/11/17 06:06:45;;;;;;;15.83;7.55;;;;;;;;;;1681134;84;21068;-61
2022/11/17 06:09:12;;;;;;;21.85;8.75;;;;;;;;;;1684789;84;21032;-60
2022/11/17 06:11:38;;;;;;;15.03;8.20;;;;;;;;;;1711189;83;21503;-61
2022/11/17 06:14:04;;;;;;;14.50;7.10;;;;;;;;;;1690450;84;21085;-61
2022/11/17 06:16:31;;;;;;;14.47;7.10;;;;;;;;;;1704200;83;21070;-61
2022/11/17 06:19:03;;;;;;;14.00;7.08;;;;;;;;;;1650030;87;21592;-61
2022/11/17 06:21:29;;;;;;;14.00;7.75;;;;;;;;;;1693821;84;21099;-61
2022/11/17 06:23:55;;;;;;;16.75;7.60;;;;;;;;;;1690429;84;21161;-61
2022/11/17 06:26:22;;;;;;;16.62;8.23;;;;;;;;;;1707886;84;21032;-61
2022/11/17 06:28:48;;;;;;;13.90;6.95;;;;;;;;;;1705696;84;21043;-61
2022/11/17 06:31:14;;;;;;;15.48;7.95;;;;;;;;;;1699943;84;21035;-61
2022/11/17 06:33:41;;;;;;;15.08;7.20;;;;;;;;;;1707602;84;21079;-61
2022/11/17 06:36:07;;;;;;;14.53;6.87;;;;;;;;;;1692224;84;21122;-61
2022/11/17 06:38:34;;;;;;;14.03;7.00;;;;;;;;;;1687245;84;21083;-61
2022/11/17 06:41:02;;;;;;;14.45;8.28;;;;;;;;;;1680513;84;21091;-61
2022/11/17 06:43:28;;;;;;;17.15;7.78;;;;;;;;;;1691725;84;21122;-61
2022/11/17 06:45:55;;;;;;;15.15;7.42;;;;;;;;;;1693074;82;21110;-62
2022/11/17 06:48:25;;;;;;;15.70;7.53;;;;;;;;;;1696212;82;21096;-61
2022/11/17 06:50:49;;;;;;;15.08;7.58;;;;;;;;;;1685169;84;21052;-61
2022/11/17 06:53:15;;;;;;;15.32;7.83;;;;;;;;;;1694171;84;21040;-61
2022/11/17 06:55:44;;;;;;;15.28;7.90;;;;;;;;;;1685875;84;21051;-60
2022/11/17 06:58:10;;;;;;;12.50;6.92;;;;;;;;;;1684960;84;21598;-60
2022/11/17 07:00:38;;;;;;;13.15;7.20;;;;;;;;;;1699643;84;21549;-60
2022/11/17 07:03:06;;;;;;;14.73;7.17;;;;;;;;;;1700274;83;21068;-61
2022/11/17 07:05:32;;;;;;;15.20;7.85;;;;;;;;;;1693104;84;20978;-61
2022/11/17 07:07:59;;;;;;;14.73;7.70;;;;;;;;;;1688970;84;21597;-61
2022/11/17 07:10:26;;;;;;;12.13;6.80;;;;;;;;;;1689123;84;21016;-61
2022/11/17 07:12:52;;;;;;;14.90;7.05;;;;;;;;;;1684656;84;21148;-61
2022/11/17 07:15:19;;;;;;;14.68;7.35;;;;;;;;;;1690281;84;21123;-60
2022/11/17 07:17:45;;;;;;;14.68;7.85;;;;;;;;;;1691144;84;21083;-61
2022/11/17 07:20:12;;;;;;;14.07;7.25;;;;;;;;;;1682438;84;21078;-61
2022/11/17 07:22:42;;;;;;;13.35;7.10;;;;;;;;;;1686529;84;21064;-60
2022/11/17 07:25:09;;;;;;;16.50;7.53;;;;;;;;;;1700494;84;21127;-61
2022/11/17 07:27:35;;;;;;;15.65;7.85;;;;;;;;;;1693606;84;21059;-61
2022/11/17 07:30:05;;;;;;;16.73;7.85;;;;;;;;;;1687249;83;21065;-61
2022/11/17 07:32:32;;;;;;;13.88;7.47;;;;;;;;;;1686045;84;20988;-60
2022/11/17 07:35:00;;;;;;;13.35;6.72;;;;;;;;;;1694554;83;21102;-62
2022/11/17 07:37:27;;;;;;;11.38;6.47;;;;;;;;;;1692858;84;21126;-62
2022/11/17 07:39:53;;;;;;;15.18;7.92;;;;;;;;;;1676361;84;21091;-62
2022/11/17 07:42:19;;;;;;;13.93;7.55;;;;;;;;;;1705838;83;21095;-61
2022/11/17 07:44:48;;;;;;;13.43;6.83;;;;;;;;;;1679065;84;21102;-61
2022/11/17 07:47:14;;;;;;;12.30;7.00;;;;;;;;;;1689484;84;21075;-61
2022/11/17 07:49:41;;;;;;;13.53;7.17;;;;;;;;;;1664989;83;21514;-61
2022/11/17 07:52:08;;;;;;;14.50;7.83;;;;;;;;;;1721213;82;21003;-62
2022/11/17 07:54:35;;;;;;;14.55;7.47;;;;;;;;;;1670243;84;21057;-62
2022/11/17 07:57:02;;;;;;;12.43;6.95;;;;;;;;;;1700914;83;21085;-62
2022/11/17 07:59:28;;;;;;;15.32;7.50;;;;;;;;;;1671782;85;21010;-63
2022/11/17 08:01:54;;;;;;;12.45;6.72;;;;;;;;;;1669262;85;21077;-62
2022/11/17 08:04:21;;;;;;;13.45;7.45;;;;;;;;;;1694847;83;21079;-61
2022/11/17 08:06:47;;;;;;;12.25;6.70;;;;;;;;;;1695713;83;21024;-62
2022/11/17 08:09:14;;;;;;;15.45;7.58;;;;;;;;;;1679505;83;21138;-61
2022/11/17 08:11:40;;;;;;;15.03;8.60;;;;;;;;;;1702716;83;21062;-61
2022/11/17 08:14:08;;;;;;;11.90;7.47;;;;;;;;;;1694622;84;21362;-61
2022/11/17 08:16:34;;;;;;;13.72;7.35;;;;;;;;;;1691884;84;21044;-62
2022/11/17 08:19:00;;;;;;;12.88;7.40;;;;;;;;;;1683026;84;21056;-62
2022/11/17 08:21:27;;;;;;;14.83;7.92;;;;;;;;;;1694790;84;21068;-62
2022/11/17 08:23:54;;;;;;;12.43;6.72;;;;;;;;;;1690677;83;21021;-62
2022/11/17 08:26:24;;;;;;;14.40;7.55;;;;;;;;;;1699283;84;21044;-62
2022/11/17 08:28:50;;;;;;;12.20;6.75;;;;;;;;;;1698663;84;21096;-62
2022/11/17 08:31:17;;;;;;;13.22;6.45;;;;;;;;;;1686406;83;21127;-63
2022/11/17 08:33:43;;;;;;;15.35;7.35;;;;;;;;;;1721455;82;21079;-61
2022/11/17 08:36:09;;;;;;;14.93;7.55;;;;;;;;;;1720877;82;21533;-61
2022/11/17 08:38:35;;;;;;;13.70;7.15;;;;;;;;;;1720214;82;21816;-62
2022/11/17 08:41:02;;;;;;;14.13;7.55;;;;;;;;;;1725982;82;21059;-62
2022/11/17 08:43:30;;;;;;;14.03;8.05;;;;;;;;;;1720112;82;21386;-62
2022/11/17 08:45:56;;;;;;;13.20;7.17;;;;;;;;;;1722036;82;21121;-62
2022/11/17 08:48:23;;;;;;;17.27;8.13;;;;;;;;;;1703995;83;21062;-61
2022/11/17 08:50:49;;;;;;;13.95;7.60;;;;;;;;;;1707252;83;21075;-62
2022/11/17 08:53:16;;;;;;;15.88;8.45;;;;;;;;;;1707088;83;21016;-62
2022/11/17 08:55:43;;;;;;;16.40;7.95;;;;;;;;;;1710912;83;21659;-61
2022/11/17 08:58:11;;;;;;;16.52;7.42;;;;;;;;;;1710616;83;21079;-61
2022/11/17 09:00:38;;;;;;;15.23;8.33;;;;;;;;;;1703843;83;21079;-63
2022/11/17 09:03:05;;;;;;;17.17;8.50;;;;;;;;;;1707601;83;21036;-62
2022/11/17 09:05:34;;;;;;;16.30;8.10;;;;;;;;;;1727397;82;21167;-61
2022/11/17 09:08:00;;;;;;;17.62;8.03;;;;;;;;;;1724278;82;21031;-61
2022/11/17 09:10:26;;;;;;;15.90;7.53;;;;;;;;;;1693508;83;22484;-62
2022/11/17 09:12:56;;;;;;;15.23;8.23;;;;;;;;;;1713431;82;21063;-63
2022/11/17 09:15:22;;;;;;;16.23;8.40;;;;;;;;;;1729787;82;21011;-61
2022/11/17 09:17:50;;;;;;;13.93;7.62;;;;;;;;;;1698007;83;21140;-61
2022/11/17 09:20:17;;;;;;;17.30;7.80;;;;;;;;;;1693261;83;21013;-61
2022/11/17 09:22:44;;;;;;;13.93;7.95;;;;;;;;;;1668750;84;21058;-62
2022/11/17 09:25:10;;;;;;;16.42;8.00;;;;;;;;;;1711276;84;21033;-63
2022/11/17 09:27:36;;;;;;;14.98;8.00;;;;;;;;;;1707839;82;21051;-60
2022/11/17 09:30:03;;;;;;;16.48;8.55;;;;;;;;;;1705174;84;21071;-64
2022/11/17 09:32:30;;;;;;;15.55;8.53;;;;;;;;;;1708483;82;21152;-62
2022/11/17 09:34:56;;;;;;;14.15;7.70;;;;;;;;;;1697248;83;21032;-61
2022/11/17 09:37:25;;;;;;;15.50;7.72;;;;;;;;;;1692539;84;21004;-62
2022/11/17 09:39:50;;;;;;;15.78;8.23;;;;;;;;;;1700296;84;21055;-62
2022/11/17 09:42:17;;;;;;;12.78;7.20;;;;;;;;;;1702570;84;21075;-61
2022/11/17 09:44:45;;;;;;;17.45;8.50;;;;;;;;;;1704635;84;21045;-61
2022/11/17 09:47:14;;;;;;;14.00;7.47;;;;;;;;;;1703887;82;21078;-60
2022/11/17 09:49:43;;;;;;;18.80;8.63;;;;;;;;;;1661919;82;21183;-63
2022/11/17 09:52:15;;;;;;;17.50;8.10;;;;;;;;;;1657347;86;21062;-61
2022/11/17 09:54:42;;;;;;;16.97;9.45;;;;;;;;;;1661549;86;21035;-61
2022/11/17 10:17:03;;;;;;;15.60;9.18;;;;;;;;;;1813787;77;22410;-62
2022/11/17 10:19:31;;;;;;;15.60;9.05;;;;;;;;;;1763082;78;21047;-62
2022/11/17 10:22:00;;;;;;;11.85;7.60;;;;;;;;;;1765334;80;21399;-61
2022/11/17 10:24:33;;;;;;;16.42;9.03;;;;;;;;;;1766977;80;21473;-63
2022/11/17 10:27:20;;;;;;;14.53;7.92;;;;;;;;;;1773254;80;21102;-63
2022/11/17 10:30:03;;;;;;;16.25;8.73;;;;;;;;;;1765872;80;20999;-62
2022/11/17 10:32:31;;;;;;;16.48;8.75;;;;;;;;;;1766236;80;21046;-62
2022/11/17 10:35:17;;;;;;;21.25;9.28;;;;;;;;;;1783032;78;21508;-63
2022/11/17 10:37:45;;;;;;;17.37;7.62;;;;;;;;;;1764459;80;21673;-62
2022/11/17 10:40:14;;;;;;;17.87;8.65;;;;;;;;;;1765253;80;21029;-63
2022/11/17 10:42:40;;;;;;;17.05;9.03;;;;;;;;;;1777153;80;20973;-63
2022/11/17 10:45:07;;;;;;;17.55;9.00;;;;;;;;;;1785764;80;21318;-64
2022/11/17 10:47:38;;;;;;;17.62;8.80;;;;;;;;;;1784708;80;20973;-62
2022/11/17 10:50:21;;;;;;;15.20;8.43;;;;;;;;;;1772230;80;20989;-62
2022/11/17 10:52:48;;;;;;;16.95;7.95;;;;;;;;;;1774963;80;21049;-64
2022/11/17 10:55:18;;;;;;;14.90;8.35;;;;;;;;;;1771997;80;21032;-62
2022/11/17 10:57:46;;;;;;;19.90;9.93;;;;;;;;;;1778215;80;21060;-64
2022/11/17 11:00:23;;;;;;;15.65;8.48;;;;;;;;;;1771499;80;21005;-64
2022/11/17 11:02:49;;;;;;;15.58;8.15;;;;;;;;;;1775143;80;21012;-64
2022/11/17 11:05:16;;;;;;;15.38;8.25;;;;;;;;;;1747617;80;20972;-64
2022/11/17 11:07:42;;;;;;;16.70;8.75;;;;;;;;;;1738469;80;21052;-63
2022/11/17 11:10:16;;;;;;;20.40;9.70;;;;;;;;;;1736764;82;21002;-63
2022/11/17 11:12:42;;;;;;;;;;;;;;;;;;1739401;82;21010;-63
2022/11/17 11:15:16;;;;;;;17.60;9.98;;;;;;;;;;1746444;80;20156;-63
2022/11/17 11:17:44;;;;;;;16.25;8.60;;;;;;;;;;1727491;82;21025;-64
2022/11/17 11:20:14;;;;;;;17.48;8.35;;;;;;;;;;1675063;85;21036;-64
2022/11/17 11:22:57;;;;;;;19.37;8.68;;;;;;;;;;1692252;84;21132;-63
2022/11/17 11:25:28;;;;;;;20.30;9.43;;;;;;;;;;1703981;83;21537;-62
2022/11/17 11:28:14;;;;;;;17.50;8.28;;;;;;;;;;1697635;84;21062;-63
2022/11/17 11:30:42;;;;;;;15.78;8.00;;;;;;;;;;1707368;84;21121;-63
2022/11/17 11:33:27;;;;;;;12.93;7.40;;;;;;;;;;1683067;84;21206;-62
2022/11/17 11:36:14;;;;;;;17.23;9.18;;;;;;;;;;1693499;84;21063;-62
2022/11/17 11:38:56;;;;;;;15.25;8.65;;;;;;;;;;1707297;84;21108;-63
2022/11/17 11:41:41;;;;;;;17.73;8.63;;;;;;;;;;1710080;82;21546;-63
2022/11/17 11:44:11;;;;;;;15.98;8.70;;;;;;;;;;1707580;84;21105;-63
2022/11/17 11:46:39;;;;;;;13.35;7.97;;;;;;;;;;1683347;85;21593;-63
2022/11/17 11:49:07;;;;;;;17.73;8.58;;;;;;;;;;1751406;80;21620;-63
2022/11/17 11:51:35;;;;;;;19.52;8.25;;;;;;;;;;1738870;82;21053;-65
2022/11/17 11:54:03;;;;;;;16.93;8.65;;;;;;;;;;1743717;81;21750;-64
2022/11/17 11:56:33;;;;;;;17.20;9.48;;;;;;;;;;1711267;82;21096;-65
2022/11/17 11:59:00;;;;;;;18.52;8.98;;;;;;;;;;1745477;82;21001;-64
2022/11/17 12:01:26;;;;;;;17.90;8.78;;;;;;;;;;1733274;82;21063;-62
2022/11/17 12:03:58;;;;;;;13.60;7.78;;;;;;;;;;1712738;82;20964;-63
2022/11/17 12:06:41;;;;;;;18.17;8.48;;;;;;;;;;1740393;82;21137;-62
2022/11/17 12:09:25;;;;;;;19.55;8.55;;;;;;;;;;1747430;82;21468;-62
2022/11/17 12:12:00;;;;;;;16.23;8.23;;;;;;;;;;1733075;82;21043;-64
2022/11/17 12:14:27;;;;;;;18.30;9.28;;;;;;;;;;1726718;82;21020;-63
2022/11/17 12:17:05;;;;;;;15.98;8.05;;;;;;;;;;1671395;85;21117;-63
2022/11/17 12:19:45;;;;;;;15.72;8.33;;;;;;;;;;1727834;82;21591;-64
2022/11/17 12:22:13;;;;;;;15.78;8.85;;;;;;;;;;1728081;82;20997;-64
2022/11/17 12:24:40;;;;;;;13.10;7.50;;;;;;;;;;1686856;81;21572;-64
2022/11/17 12:27:24;;;;;;;15.10;7.55;;;;;;;;;;1735736;81;21068;-64
2022/11/17 12:29:50;;;;;;;18.90;8.60;;;;;;;;;;1722295;81;21009;-62
2022/11/17 12:32:35;;;;;;;14.55;8.10;;;;;;;;;;1733533;81;21017;-65
2022/11/17 12:35:19;;;;;;;14.93;7.80;;;;;;;;;;1734975;81;21560;-63
2022/11/17 12:37:46;;;;;;;14.65;8.08;;;;;;;;;;1733320;82;21092;-63
2022/11/17 12:40:30;;;;;;;14.95;8.93;;;;;;;;;;1732664;82;21615;-63
2022/11/17 12:43:16;;;;;;;12.70;7.75;;;;;;;;;;1726796;82;20977;-63
2022/11/17 12:45:54;;;;;;;15.90;8.10;;;;;;;;;;1720063;82;21009;-62
2022/11/17 12:48:23;;;;;;;14.28;7.62;;;;;;;;;;1721898;82;21091;-62
2022/11/17 12:50:55;;;;;;;13.35;7.20;;;;;;;;;;1732274;82;21073;-63
2022/11/17 12:53:25;;;;;;;13.70;7.80;;;;;;;;;;1732708;82;20985;-62
2022/11/17 12:55:59;;;;;;;12.18;7.37;;;;;;;;;;1720154;82;21072;-63
2022/11/17 12:58:33;;;;;;;13.22;8.25;;;;;;;;;;1726367;82;21041;-64
2022/11/17 13:01:07;;;;;;;14.10;7.30;;;;;;;;;;1725374;82;21080;-63
2022/11/17 13:03:41;;;;;;;15.70;8.45;;;;;;;;;;1730466;82;21072;-63
2022/11/17 13:06:10;;;;;;;14.40;7.95;;;;;;;;;;1728319;82;21092;-63
2022/11/17 13:08:37;;;;;;;12.70;7.25;;;;;;;;;;1720937;81;21017;-64
2022/11/17 13:11:04;;;;;;;12.50;7.15;;;;;;;;;;1728519;82;21002;-63
2022/11/17 13:13:31;;;;;;;15.15;7.75;;;;;;;;;;1733652;82;22112;-64
2022/11/17 13:15:57;;;;;;;12.43;7.05;;;;;;;;;;1724090;82;21049;-66
2022/11/17 13:18:25;;;;;;;14.87;7.55;;;;;;;;;;1719365;81;21480;-64
2022/11/17 13:20:53;;;;;;;15.70;8.13;;;;;;;;;;1736158;82;21016;-63
2022/11/17 13:23:24;;;;;;;16.45;8.30;;;;;;;;;;1737109;80;20981;-62
2022/11/17 13:25:52;;;;;;;13.50;6.80;;;;;;;;;;1733231;80;20980;-63
2022/11/17 13:28:28;;;;;;;15.85;8.03;;;;;;;;;;1722593;82;21504;-63
2022/11/17 13:30:54;;;;;;;17.27;8.25;;;;;;;;;;1736899;80;21563;-62
2022/11/17 13:33:21;;;;;;;15.68;8.03;;;;;;;;;;1737087;82;21020;-62
2022/11/17 13:35:47;;;;;;;10.65;6.87;;;;;;;;;;1736199;80;20997;-63
2022/11/17 13:38:21;;;;;;;12.23;7.45;;;;;;;;;;1744040;80;20996;-63
2022/11/17 13:40:47;;;;;;;15.18;8.23;;;;;;;;;;1725398;82;21500;-62
2022/11/17 13:43:16;;;;;;;12.82;7.50;;;;;;;;;;1747246;82;21087;-61
2022/11/17 13:45:44;;;;;;;13.93;8.55;;;;;;;;;;1734791;82;21062;-61
2022/11/17 13:48:28;;;;;;;18.05;9.60;;;;;;;;;;1740474;82;21535;-62
2022/11/17 13:50:55;;;;;;;15.40;7.83;;;;;;;;;;1732760;82;21059;-63
2022/11/17 13:53:23;;;;;;;16.30;7.70;;;;;;;;;;1741706;82;21036;-63
2022/11/17 13:55:49;;;;;;;12.80;7.47;;;;;;;;;;1733413;82;20993;-64
2022/11/17 13:58:33;;;;;;;12.07;7.00;;;;;;;;;;1728891;82;21057;-65
2022/11/17 14:00:59;;;;;;;14.90;8.00;;;;;;;;;;1725728;82;21049;-61
2022/11/17 14:03:27;;;;;;;15.98;8.43;;;;;;;;;;1726420;82;22432;-62
2022/11/17 14:05:55;;;;;;;15.05;7.95;;;;;;;;;;1717911;83;21072;-63
2022/11/17 14:08:22;;;;;;;15.55;6.97;;;;;;;;;;1724399;82;21365;-63
2022/11/17 14:10:48;;;;;;;17.92;8.90;;;;;;;;;;1734796;80;21106;-62
2022/11/17 14:13:16;;;;;;;14.25;7.90;;;;;;;;;;1740997;82;22328;-62
2022/11/17 14:15:43;;;;;;;16.45;8.75;;;;;;;;;;1724417;82;21602;-62
2022/11/17 14:18:26;;;;;;;13.32;7.78;;;;;;;;;;1711438;81;21044;-63
2022/11/17 14:21:03;;;;;;;18.75;8.63;;;;;;;;;;1745496;82;21064;-61
2022/11/17 14:23:29;;;;;;;17.67;8.85;;;;;;;;;;1735108;82;21198;-62
2022/11/17 14:25:56;;;;;;;16.67;8.25;;;;;;;;;;1748374;80;21039;-62
2022/11/17 14:28:22;;;;;;;15.90;8.35;;;;;;;;;;1735869;80;21040;-63
2022/11/17 14:30:49;;;;;;;14.85;7.45;;;;;;;;;;1747699;82;21562;-63
2022/11/17 14:33:15;;;;;;;14.75;7.83;;;;;;;;;;1730886;80;20965;-63
2022/11/17 14:35:42;;;;;;;14.38;7.37;;;;;;;;;;1738461;80;21044;-63
2022/11/17 14:38:17;;;;;;;17.73;7.72;;;;;;;;;;1740429;80;21176;-63
2022/11/17 14:52:06;;;;;;;12.63;7.65;;;;;;;;;;1779342;80;28235;-64
2022/11/17 14:54:33;;;;;;;16.87;9.45;;;;;;;;;;1751546;82;21060;-63
2022/11/17 14:56:59;;;;;;;17.10;9.48;;;;;;;;;;1786312;80;21467;-62
2022/11/17 14:59:25;;;;;;;13.58;9.08;;;;;;;;;;1781529;79;21526;-64
2022/11/17 15:01:51;;;;;;;15.40;10.53;;;;;;;;;;1792995;78;21020;-63
2022/11/17 15:04:17;;;;;;;13.95;9.88;;;;;;;;;;1801745;78;21039;-64
2022/11/17 15:06:44;;;;;;;14.75;9.90;;;;;;;;;;1799939;78;21637;-64
2022/11/17 15:09:11;;;;;;;15.83;9.15;;;;;;;;;;1801453;78;21036;-65
2022/11/17 15:11:37;;;;;;;15.95;10.30;;;;;;;;;;1809273;78;21073;-64
2022/11/17 15:14:03;;;;;;;17.77;10.18;;;;;;;;;;1740127;81;21113;-64
2022/11/17 15:16:32;;;;;;;16.85;9.08;;;;;;;;;;1744879;82;21002;-64
2022/11/17 15:18:59;;;;;;;15.00;9.45;;;;;;;;;;1760144;81;21456;-65
2022/11/17 15:21:25;;;;;;;12.80;8.18;;;;;;;;;;1733157;81;21016;-64
2022/11/17 15:23:53;;;;;;;12.88;7.78;;;;;;;;;;1757980;80;21009;-64
2022/11/17 15:26:22;;;;;;;14.50;7.05;;;;;;;;;;1761762;81;20956;-66
2022/11/17 15:28:47;;;;;;;13.75;8.25;;;;;;;;;;1785748;80;21367;-65
2022/11/17 15:31:14;;;;;;;11.97;6.97;;;;;;;;;;1775961;80;21035;-64
2022/11/17 15:33:40;;;;;;;12.03;7.62;;;;;;;;;;1766988;79;21046;-63
2022/11/17 15:36:09;;;;;;;11.97;6.78;;;;;;;;;;1765190;79;21015;-64
2022/11/17 15:38:36;;;;;;;15.10;7.50;;;;;;;;;;1758363;80;21091;-63
2022/11/17 15:41:02;;;;;;;16.32;7.78;;;;;;;;;;1760521;80;21116;-63
2022/11/17 15:43:29;;;;;;;14.43;7.78;;;;;;;;;;1762577;79;21008;-65
2022/11/17 15:45:58;;;;;;;11.50;7.40;;;;;;;;;;1761452;81;21032;-65
2022/11/17 15:48:24;;;;;;;10.82;7.17;;;;;;;;;;1744642;80;21007;-64
2022/11/17 15:51:01;;;;;;;14.20;6.97;;;;;;;;;;1769841;78;21112;-64
2022/11/17 15:53:30;;;;;;;11.08;6.35;;;;;;;;;;1707847;82;21093;-63
2022/11/17 15:56:02;;;;;;;14.80;7.40;;;;;;;;;;1750537;82;21030;-64
2022/11/17 15:58:28;;;;;;;12.82;6.55;;;;;;;;;;1715108;81;21705;-63
2022/11/17 16:00:57;;;;;;;13.08;7.03;;;;;;;;;;1713284;81;21120;-63
2022/11/17 16:03:23;;;;;;;15.85;8.38;;;;;;;;;;1735230;81;21126;-63
2022/11/17 16:05:49;;;;;;;15.43;7.10;;;;;;;;;;1748344;80;21023;-63
2022/11/17 16:08:15;;;;;;;14.23;7.53;;;;;;;;;;1751605;80;21340;-63
2022/11/17 16:10:42;;;;;;;11.10;6.62;;;;;;;;;;1747296;80;22012;-63
2022/11/17 16:13:09;;;;;;;12.93;7.47;;;;;;;;;;1714503;81;21008;-64
2022/11/17 16:15:35;;;;;;;15.68;7.62;;;;;;;;;;1721330;81;21521;-64
2022/11/17 16:18:03;;;;;;;12.70;6.15;;;;;;;;;;1724882;81;21623;-64
2022/11/17 16:20:29;;;;;;;13.05;7.10;;;;;;;;;;1748043;80;21090;-64
2022/11/17 16:22:56;;;;;;;15.83;7.50;;;;;;;;;;1747941;80;21074;-65
2022/11/17 16:25:22;;;;;;;15.08;7.15;;;;;;;;;;1748340;80;21011;-63
2022/11/17 16:27:48;;;;;;;13.58;6.90;;;;;;;;;;1748446;80;21317;-64
2022/11/17 16:30:15;;;;;;;13.90;6.90;;;;;;;;;;1752077;80;21023;-64
2022/11/17 16:32:41;;;;;;;14.68;6.78;;;;;;;;;;1716710;81;21477;-63
2022/11/17 16:35:07;;;;;;;10.48;6.28;;;;;;;;;;1747360;80;21039;-64
2022/11/17 16:37:33;;;;;;;13.75;7.62;;;;;;;;;;1747168;80;21673;-63
2022/11/17 16:40:00;;;;;;;12.15;5.75;;;;;;;;;;1744988;80;21034;-64
2022/11/17 16:42:26;;;;;;;10.88;6.00;;;;;;;;;;1746095;80;21037;-64
2022/11/17 16:44:52;;;;;;;10.38;6.22;;;;;;;;;;1745621;80;21622;-63
2022/11/17 16:47:18;;;;;;;10.35;6.62;;;;;;;;;;1743525;80;21031;-63
2022/11/17 16:49:44;;;;;;;11.70;5.83;;;;;;;;;;1710873;81;21444;-64
2022/11/17 16:52:10;;;;;;;13.85;7.03;;;;;;;;;;1731153;81;21020;-64
2022/11/17 16:54:37;;;;;;;14.68;6.03;;;;;;;;;;1781661;79;21093;-64
2022/11/17 16:57:05;;;;;;;12.80;6.92;;;;;;;;;;1750823;81;21005;-64
2022/11/17 16:59:32;;;;;;;13.98;6.70;;;;;;;;;;1741980;81;21130;-64
2022/11/17 17:01:58;;;;;;;11.88;6.47;;;;;;;;;;1738627;80;21109;-64
2022/11/17 17:04:27;;;;;;;10.63;6.30;;;;;;;;;;1736180;80;21076;-66
2022/11/17 17:06:53;;;;;;;10.70;6.47;;;;;;;;;;1734455;80;21104;-64
2022/11/17 17:09:20;;;;;;;13.28;7.45;;;;;;;;;;1733495;80;21046;-66
2022/11/17 17:11:47;;;;;;;11.05;6.25;;;;;;;;;;1738518;80;21095;-66
2022/11/17 17:14:16;;;;;;;11.75;5.67;;;;;;;;;;1736140;80;21309;-64
2022/11/17 17:16:43;;;;;;;13.90;7.50;;;;;;;;;;1737775;80;21044;-65
2022/11/17 17:19:10;;;;;;;10.00;6.58;;;;;;;;;;1731760;80;21025;-64
2022/11/17 17:21:38;;;;;;;12.23;6.53;;;;;;;;;;1754914;80;21047;-64
2022/11/17 17:24:04;;;;;;;12.95;6.97;;;;;;;;;;1756962;80;21042;-64
2022/11/17 17:26:31;;;;;;;13.08;6.33;;;;;;;;;;1757798;80;21082;-63
2022/11/17 17:28:58;;;;;;;14.58;6.87;;;;;;;;;;1756221;80;21028;-63
2022/11/17 17:31:25;;;;;;;13.88;6.40;;;;;;;;;;1753796;80;21075;-65
2022/11/17 17:33:51;;;;;;;15.10;6.95;;;;;;;;;;1755988;80;21025;-64
2022/11/17 17:36:18;;;;;;;9.75;5.97;;;;;;;;;;1758761;80;21069;-64
2022/11/17 17:38:44;;;;;;;8.78;5.22;;;;;;;;;;1755545;80;21004;-63
2022/11/17 17:41:11;;;;;;;11.43;6.75;;;;;;;;;;1754311;80;21337;-63
2022/11/17 17:43:37;;;;;;;12.28;5.78;;;;;;;;;;1755088;80;20975;-65
2022/11/17 17:46:05;;;;;;;12.73;6.25;;;;;;;;;;1759566;80;21040;-63
2022/11/17 17:48:32;;;;;;;9.98;5.67;;;;;;;;;;1757004;80;21603;-64
2022/11/17 17:51:01;;;;;;;14.05;5.75;;;;;;;;;;1758237;80;21032;-64
2022/11/17 17:53:27;;;;;;;10.53;5.95;;;;;;;;;;1788075;78;21001;-63
2022/11/17 17:55:58;;;;;;;11.88;6.55;;;;;;;;;;1780688;79;21083;-64
2022/11/17 17:58:24;;;;;;;12.85;7.12;;;;;;;;;;1787288;78;21035;-64
2022/11/17 18:00:51;;;;;;;9.60;5.72;;;;;;;;;;1787787;78;20999;-64
2022/11/17 18:03:18;;;;;;;10.82;6.30;;;;;;;;;;1783735;78;22011;-65
2022/11/17 18:05:45;;;;;;;9.28;5.12;;;;;;;;;;1775655;79;21055;-65
2022/11/17 18:08:11;;;;;;;9.10;5.60;;;;;;;;;;1764023;79;21068;-64
2022/11/17 18:10:37;;;;;;;8.83;5.67;;;;;;;;;;1787661;78;21004;-64
2022/11/17 18:13:04;;;;;;;8.55;5.10;;;;;;;;;;1788302;78;21044;-65
2022/11/17 18:15:31;;;;;;;13.55;6.17;;;;;;;;;;1797987;78;21108;-64
2022/11/17 18:17:57;;;;;;;10.40;5.58;;;;;;;;;;1785461;78;21012;-64
2022/11/17 18:20:23;;;;;;;10.03;5.85;;;;;;;;;;1785984;78;21048;-65
2022/11/17 18:22:49;;;;;;;15.88;6.55;;;;;;;;;;1783091;78;20988;-63
2022/11/17 18:25:15;;;;;;;12.15;6.17;;;;;;;;;;1783097;78;21056;-64
2022/11/17 18:27:41;;;;;;;9.10;5.15;;;;;;;;;;1780411;78;21393;-65
2022/11/17 18:30:08;;;;;;;9.48;5.37;;;;;;;;;;1784601;78;21056;-67
2022/11/17 18:32:34;;;;;;;11.73;5.55;;;;;;;;;;1781861;78;21029;-65
2022/11/17 18:35:00;;;;;;;11.15;6.28;;;;;;;;;;1800883;78;20992;-65
2022/11/17 18:37:26;;;;;;;9.53;5.65;;;;;;;;;;1810179;78;21015;-64
2022/11/17 18:39:52;;;;;;;10.32;6.08;;;;;;;;;;1805604;78;21015;-64
2022/11/17 18:42:20;;;;;;;11.25;6.30;;;;;;;;;;1806038;78;21015;-63
2022/11/17 18:44:46;;;;;;;9.98;5.90;;;;;;;;;;1779331;78;20971;-65
2022/11/17 18:47:12;;;;;;;9.95;5.65;;;;;;;;;;1757514;80;21506;-64
2022/11/17 18:49:39;;;;;;;11.88;6.62;;;;;;;;;;1793246;79;21008;-65
2022/11/17 18:52:06;;;;;;;12.35;6.97;;;;;;;;;;1778025;79;21040;-64
2022/11/17 18:54:34;;;;;;;11.65;6.05;;;;;;;;;;1800902;78;21023;-63
2022/11/17 18:57:00;;;;;;;9.35;5.60;;;;;;;;;;1783608;78;20987;-64
2022/11/17 18:59:27;;;;;;;10.23;5.75;;;;;;;;;;1790836;78;21004;-65
2022/11/17 19:01:53;;;;;;;10.20;6.30;;;;;;;;;;1805078;78;21032;-64
2022/11/17 19:04:19;;;;;;;10.05;6.12;;;;;;;;;;1787568;80;20960;-64
2022/11/17 19:06:45;;;;;;;8.88;5.37;;;;;;;;;;1764671;80;21036;-65
2022/11/17 19:09:12;;;;;;;13.38;6.50;;;;;;;;;;1755478;80;21067;-65
2022/11/17 19:11:38;;;;;;;11.57;6.17;;;;;;;;;;1758092;80;21527;-63